Adco, Washington
Current Conditions -  °F | °C
As of 3:53 AM on Monday 22 Dec 2014 (Local Time) from KEPH Reporting Station
Clear Clear  
Wind Chill: 36°   Ceiling: Unl
Heat Index: 43°   Visibility: 10mi
Dew Point: 32°   Wind: 13mph
Humidity: 65%   Direction: 260°W
Pressure: 30.05"   Gusts: NA
Location:  47.4314°N, 119.485°W
Report Text: KEPH 221153Z AUTO 26011KT 10SM CLR 06/00 A3005 RMK AO2 SLP182 T00610000 10089 20006 53013
Loading
Personal Weather Stations






























Interactive Weather Map New forecast layout! Learn more

10-Day Weather Forecast

Advertisements
Track Severe Weather on mobile